sensor_id;sensor_type;location;lat;lon;timestamp;temperature;humidity
12254;DHT22;6189;52.526;13.390;2023-04-03T00:01:23;6.90;90.70
12254;DHT22;6189;52.526;13.390;2023-04-03T00:04:08;6.90;90.90
12254;DHT22;6189;52.526;13.390;2023-04-03T00:06:54;6.80;90.80
12254;DHT22;6189;52.526;13.390;2023-04-03T00:09:40;6.20;91.00
12254;DHT22;6189;52.526;13.390;2023-04-03T00:12:26;6.40;91.80
12254;DHT22;6189;52.526;13.390;2023-04-03T00:15:11;6.20;91.90
12254;DHT22;6189;52.526;13.390;2023-04-03T00:17:58;6.40;92.00
12254;DHT22;6189;52.526;13.390;2023-04-03T00:20:44;6.60;91.90
12254;DHT22;6189;52.526;13.390;2023-04-03T00:23:30;6.60;91.70
12254;DHT22;6189;52.526;13.390;2023-04-03T00:26:15;6.60;91.60
12254;DHT22;6189;52.526;13.390;2023-04-03T00:29:01;6.60;91.80
12254;DHT22;6189;52.526;13.390;2023-04-03T00:31:47;6.50;91.10
12254;DHT22;6189;52.526;13.390;2023-04-03T00:34:34;6.50;91.80
12254;DHT22;6189;52.526;13.390;2023-04-03T00:37:20;6.70;91.30
12254;DHT22;6189;52.526;13.390;2023-04-03T00:40:07;6.40;91.00
12254;DHT22;6189;52.526;13.390;2023-04-03T00:42:56;6.40;91.40
12254;DHT22;6189;52.526;13.390;2023-04-03T00:45:44;6.50;91.90
12254;DHT22;6189;52.526;13.390;2023-04-03T00:48:32;6.40;91.20
12254;DHT22;6189;52.526;13.390;2023-04-03T00:51:23;6.40;91.60
12254;DHT22;6189;52.526;13.390;2023-04-03T00:54:09;6.40;91.20
12254;DHT22;6189;52.526;13.390;2023-04-03T00:56:56;6.30;91.10
12254;DHT22;6189;52.526;13.390;2023-04-03T00:59:44;6.20;91.80
12254;DHT22;6189;52.526;13.390;2023-04-03T01:02:32;6.30;91.80
12254;DHT22;6189;52.526;13.390;2023-04-03T01:05:19;6.50;92.00
12254;DHT22;6189;52.526;13.390;2023-04-03T01:08:07;6.40;91.60
12254;DHT22;6189;52.526;13.390;2023-04-03T01:10:53;6.30;91.50
12254;DHT22;6189;52.526;13.390;2023-04-03T01:13:38;6.30;91.70
12254;DHT22;6189;52.526;13.390;2023-04-03T01:16:25;6.30;91.80
12254;DHT22;6189;52.526;13.390;2023-04-03T01:19:15;6.50;91.90
12254;DHT22;6189;52.526;13.390;2023-04-03T01:22:10;6.50;91.60
12254;DHT22;6189;52.526;13.390;2023-04-03T01:25:01;6.40;91.50
12254;DHT22;6189;52.526;13.390;2023-04-03T01:27:46;6.50;91.70
12254;DHT22;6189;52.526;13.390;2023-04-03T01:30:35;6.50;91.80
12254;DHT22;6189;52.526;13.390;2023-04-03T01:33:22;6.20;92.00
12254;DHT22;6189;52.526;13.390;2023-04-03T01:36:08;6.40;91.90
12254;DHT22;6189;52.526;13.390;2023-04-03T01:38:55;6.40;92.10
12254;DHT22;6189;52.526;13.390;2023-04-03T01:41:41;6.40;91.90
12254;DHT22;6189;52.526;13.390;2023-04-03T01:44:27;6.50;92.10
12254;DHT22;6189;52.526;13.390;2023-04-03T01:47:13;6.40;91.40
12254;DHT22;6189;52.526;13.390;2023-04-03T01:50:00;6.30;91.90
12254;DHT22;6189;52.526;13.390;2023-04-03T01:52:46;6.30;91.80
12254;DHT22;6189;52.526;13.390;2023-04-03T01:55:32;6.30;91.90
12254;DHT22;6189;52.526;13.390;2023-04-03T01:58:17;6.20;92.30
12254;DHT22;6189;52.526;13.390;2023-04-03T02:01:03;6.10;92.20
12254;DHT22;6189;52.526;13.390;2023-04-03T02:03:49;6.00;92.40
12254;DHT22;6189;52.526;13.390;2023-04-03T02:06:36;5.70;92.50
12254;DHT22;6189;52.526;13.390;2023-04-03T02:09:22;5.80;93.00
12254;DHT22;6189;52.526;13.390;2023-04-03T02:12:08;5.90;92.90
12254;DHT22;6189;52.526;13.390;2023-04-03T02:14:53;5.90;93.00
12254;DHT22;6189;52.526;13.390;2023-04-03T02:17:39;6.10;93.10
12254;DHT22;6189;52.526;13.390;2023-04-03T02:20:25;6.20;93.20
12254;DHT22;6189;52.526;13.390;2023-04-03T02:23:12;6.30;92.50
12254;DHT22;6189;52.526;13.390;2023-04-03T02:26:06;6.20;92.70
12254;DHT22;6189;52.526;13.390;2023-04-03T02:28:51;6.20;92.60
12254;DHT22;6189;52.526;13.390;2023-04-03T02:31:37;6.00;92.80
12254;DHT22;6189;52.526;13.390;2023-04-03T02:34:23;6.00;92.90
12254;DHT22;6189;52.526;13.390;2023-04-03T02:37:08;5.60;92.70
12254;DHT22;6189;52.526;13.390;2023-04-03T02:39:55;5.70;93.40
12254;DHT22;6189;52.526;13.390;2023-04-03T02:42:41;5.80;93.40
12254;DHT22;6189;52.526;13.390;2023-04-03T02:45:27;5.90;93.20
12254;DHT22;6189;52.526;13.390;2023-04-03T02:48:13;5.70;93.00
12254;DHT22;6189;52.526;13.390;2023-04-03T02:50:58;5.80;93.40
12254;DHT22;6189;52.526;13.390;2023-04-03T02:53:44;5.90;93.30
12254;DHT22;6189;52.526;13.390;2023-04-03T02:56:32;5.90;93.40
12254;DHT22;6189;52.526;13.390;2023-04-03T02:59:17;6.00;93.60
12254;DHT22;6189;52.526;13.390;2023-04-03T03:02:03;6.10;93.50
12254;DHT22;6189;52.526;13.390;2023-04-03T03:04:49;6.10;92.90
12254;DHT22;6189;52.526;13.390;2023-04-03T03:07:35;6.00;93.60
12254;DHT22;6189;52.526;13.390;2023-04-03T03:10:20;6.00;93.40
12254;DHT22;6189;52.526;13.390;2023-04-03T03:13:07;6.00;93.30
12254;DHT22;6189;52.526;13.390;2023-04-03T03:15:53;6.10;93.40
12254;DHT22;6189;52.526;13.390;2023-04-03T03:18:38;6.00;92.90
12254;DHT22;6189;52.526;13.390;2023-04-03T03:21:24;6.00;93.40
12254;DHT22;6189;52.526;13.390;2023-04-03T03:24:10;6.10;93.40
12254;DHT22;6189;52.526;13.390;2023-04-03T03:26:56;5.90;92.90
12254;DHT22;6189;52.526;13.390;2023-04-03T03:29:43;5.80;93.50
12254;DHT22;6189;52.526;13.390;2023-04-03T03:32:28;5.90;93.70
12254;DHT22;6189;52.526;13.390;2023-04-03T03:35:14;5.80;93.40
12254;DHT22;6189;52.526;13.390;2023-04-03T03:38:00;5.90;93.50
12254;DHT22;6189;52.526;13.390;2023-04-03T03:40:50;5.90;93.60
12254;DHT22;6189;52.526;13.390;2023-04-03T03:43:36;5.90;93.30
12254;DHT22;6189;52.526;13.390;2023-04-03T03:46:23;6.00;93.50
12254;DHT22;6189;52.526;13.390;2023-04-03T03:49:09;5.70;93.40
12254;DHT22;6189;52.526;13.390;2023-04-03T03:51:55;5.80;93.90
12254;DHT22;6189;52.526;13.390;2023-04-03T03:54:41;5.70;93.60
12254;DHT22;6189;52.526;13.390;2023-04-03T03:57:27;5.70;93.80
12254;DHT22;6189;52.526;13.390;2023-04-03T04:00:13;5.70;93.70
12254;DHT22;6189;52.526;13.390;2023-04-03T04:03:00;5.60;93.80
12254;DHT22;6189;52.526;13.390;2023-04-03T04:05:46;5.60;94.00
12254;DHT22;6189;52.526;13.390;2023-04-03T04:08:32;5.50;94.10
12254;DHT22;6189;52.526;13.390;2023-04-03T04:11:17;5.70;94.40
12254;DHT22;6189;52.526;13.390;2023-04-03T04:14:04;5.80;94.40
12254;DHT22;6189;52.526;13.390;2023-04-03T04:16:49;5.80;93.80
12254;DHT22;6189;52.526;13.390;2023-04-03T04:19:36;5.50;93.70
12254;DHT22;6189;52.526;13.390;2023-04-03T04:22:22;5.50;94.30
12254;DHT22;6189;52.526;13.390;2023-04-03T04:25:08;5.50;94.20
12254;DHT22;6189;52.526;13.390;2023-04-03T04:27:53;5.50;94.40
12254;DHT22;6189;52.526;13.390;2023-04-03T04:30:39;5.60;94.50
12254;DHT22;6189;52.526;13.390;2023-04-03T04:33:25;5.60;94.50
12254;DHT22;6189;52.526;13.390;2023-04-03T04:36:12;5.60;94.50
12254;DHT22;6189;52.526;13.390;2023-04-03T04:38:58;5.50;94.20
12254;DHT22;6189;52.526;13.390;2023-04-03T04:41:44;5.40;94.50
12254;DHT22;6189;52.526;13.390;2023-04-03T04:44:30;5.30;94.80
12254;DHT22;6189;52.526;13.390;2023-04-03T04:47:15;5.40;95.00
12254;DHT22;6189;52.526;13.390;2023-04-03T04:50:01;5.40;94.60
12254;DHT22;6189;52.526;13.390;2023-04-03T04:52:49;5.50;95.10
12254;DHT22;6189;52.526;13.390;2023-04-03T04:55:34;5.40;95.00
12254;DHT22;6189;52.526;13.390;2023-04-03T04:58:20;5.40;95.10
12254;DHT22;6189;52.526;13.390;2023-04-03T05:01:07;5.50;95.40
12254;DHT22;6189;52.526;13.390;2023-04-03T05:03:53;5.40;95.40
12254;DHT22;6189;52.526;13.390;2023-04-03T05:06:39;5.50;95.70
12254;DHT22;6189;52.526;13.390;2023-04-03T05:09:26;5.50;95.60
12254;DHT22;6189;52.526;13.390;2023-04-03T05:12:11;5.30;95.10
12254;DHT22;6189;52.526;13.390;2023-04-03T05:14:57;5.00;95.20
12254;DHT22;6189;52.526;13.390;2023-04-03T05:17:43;5.20;95.90
12254;DHT22;6189;52.526;13.390;2023-04-03T05:20:29;5.20;95.80
12254;DHT22;6189;52.526;13.390;2023-04-03T05:23:14;5.00;95.50
12254;DHT22;6189;52.526;13.390;2023-04-03T05:26:01;5.10;96.20
12254;DHT22;6189;52.526;13.390;2023-04-03T05:28:47;5.20;96.20
12254;DHT22;6189;52.526;13.390;2023-04-03T05:31:33;5.30;96.30
12254;DHT22;6189;52.526;13.390;2023-04-03T05:34:19;5.40;96.00
12254;DHT22;6189;52.526;13.390;2023-04-03T05:37:05;5.40;95.80
12254;DHT22;6189;52.526;13.390;2023-04-03T05:39:51;5.40;96.10
12254;DHT22;6189;52.526;13.390;2023-04-03T05:42:38;5.50;96.10
12254;DHT22;6189;52.526;13.390;2023-04-03T05:45:24;5.60;95.90
12254;DHT22;6189;52.526;13.390;2023-04-03T05:48:09;5.60;95.90
12254;DHT22;6189;52.526;13.390;2023-04-03T05:50:55;5.60;96.00
12254;DHT22;6189;52.526;13.390;2023-04-03T05:53:41;5.50;95.90
12254;DHT22;6189;52.526;13.390;2023-04-03T05:56:28;5.40;96.30
12254;DHT22;6189;52.526;13.390;2023-04-03T05:59:15;5.40;96.30
12254;DHT22;6189;52.526;13.390;2023-04-03T06:02:00;5.00;96.40
12254;DHT22;6189;52.526;13.390;2023-04-03T06:04:47;5.20;96.90
12254;DHT22;6189;52.526;13.390;2023-04-03T06:07:33;5.40;96.90
12254;DHT22;6189;52.526;13.390;2023-04-03T06:10:19;5.50;96.50
12254;DHT22;6189;52.526;13.390;2023-04-03T06:13:04;5.50;96.50
12254;DHT22;6189;52.526;13.390;2023-04-03T06:15:51;5.60;96.50
12254;DHT22;6189;52.526;13.390;2023-04-03T06:18:37;5.70;96.30
12254;DHT22;6189;52.526;13.390;2023-04-03T06:21:23;5.80;96.20
12254;DHT22;6189;52.526;13.390;2023-04-03T06:24:10;5.80;96.20
12254;DHT22;6189;52.526;13.390;2023-04-03T06:26:58;6.00;95.90
12254;DHT22;6189;52.526;13.390;2023-04-03T06:29:44;5.90;95.60
12254;DHT22;6189;52.526;13.390;2023-04-03T06:32:31;5.90;95.40
12254;DHT22;6189;52.526;13.390;2023-04-03T06:35:16;6.00;95.40
12254;DHT22;6189;52.526;13.390;2023-04-03T06:38:02;6.10;95.00
12254;DHT22;6189;52.526;13.390;2023-04-03T06:40:52;5.90;95.10
12254;DHT22;6189;52.526;13.390;2023-04-03T06:43:38;6.00;95.40
12254;DHT22;6189;52.526;13.390;2023-04-03T06:46:25;6.10;95.00
12254;DHT22;6189;52.526;13.390;2023-04-03T06:49:13;6.10;94.90
12254;DHT22;6189;52.526;13.390;2023-04-03T06:51:59;6.20;94.40
12254;DHT22;6189;52.526;13.390;2023-04-03T06:54:44;6.20;94.30
12254;DHT22;6189;52.526;13.390;2023-04-03T06:57:31;6.20;94.90
12254;DHT22;6189;52.526;13.390;2023-04-03T07:00:18;6.20;94.60
12254;DHT22;6189;52.526;13.390;2023-04-03T07:03:04;6.30;94.50
12254;DHT22;6189;52.526;13.390;2023-04-03T07:05:52;6.20;93.90
12254;DHT22;6189;52.526;13.390;2023-04-03T07:08:38;6.40;94.10
12254;DHT22;6189;52.526;13.390;2023-04-03T07:11:23;6.40;93.70
12254;DHT22;6189;52.526;13.390;2023-04-03T07:14:10;6.30;93.40
12254;DHT22;6189;52.526;13.390;2023-04-03T07:16:57;6.20;92.50
12254;DHT22;6189;52.526;13.390;2023-04-03T07:19:42;6.40;92.40
12254;DHT22;6189;52.526;13.390;2023-04-03T07:22:30;6.50;92.50
12254;DHT22;6189;52.526;13.390;2023-04-03T07:25:16;6.50;92.10
12254;DHT22;6189;52.526;13.390;2023-04-03T07:28:01;6.30;91.10
12254;DHT22;6189;52.526;13.390;2023-04-03T07:30:49;6.50;91.60
12254;DHT22;6189;52.526;13.390;2023-04-03T07:33:36;6.50;90.90
12254;DHT22;6189;52.526;13.390;2023-04-03T07:36:22;6.40;90.80
12254;DHT22;6189;52.526;13.390;2023-04-03T07:39:09;6.60;91.20
12254;DHT22;6189;52.526;13.390;2023-04-03T07:41:55;6.70;90.40
12254;DHT22;6189;52.526;13.390;2023-04-03T07:44:40;6.80;89.40
12254;DHT22;6189;52.526;13.390;2023-04-03T07:47:27;6.60;88.30
12254;DHT22;6189;52.526;13.390;2023-04-03T07:50:12;6.60;87.80
12254;DHT22;6189;52.526;13.390;2023-04-03T07:52:58;6.70;88.80
12254;DHT22;6189;52.526;13.390;2023-04-03T07:55:47;6.80;89.50
12254;DHT22;6189;52.526;13.390;2023-04-03T07:58:36;6.70;88.40
12254;DHT22;6189;52.526;13.390;2023-04-03T08:01:22;6.60;88.10
12254;DHT22;6189;52.526;13.390;2023-04-03T08:04:07;6.70;87.00
12254;DHT22;6189;52.526;13.390;2023-04-03T08:06:53;6.60;84.90
12254;DHT22;6189;52.526;13.390;2023-04-03T08:09:39;6.70;88.70
12254;DHT22;6189;52.526;13.390;2023-04-03T08:12:26;6.60;85.70
12254;DHT22;6189;52.526;13.390;2023-04-03T08:15:12;6.70;86.50
12254;DHT22;6189;52.526;13.390;2023-04-03T08:17:59;6.60;86.10
12254;DHT22;6189;52.526;13.390;2023-04-03T08:20:45;6.60;86.40
12254;DHT22;6189;52.526;13.390;2023-04-03T08:23:30;6.70;87.00
12254;DHT22;6189;52.526;13.390;2023-04-03T08:26:17;6.90;86.90
12254;DHT22;6189;52.526;13.390;2023-04-03T08:29:05;6.90;85.70
12254;DHT22;6189;52.526;13.390;2023-04-03T08:31:50;7.00;85.30
12254;DHT22;6189;52.526;13.390;2023-04-03T08:34:36;6.90;84.40
12254;DHT22;6189;52.526;13.390;2023-04-03T08:37:23;7.10;84.60
12254;DHT22;6189;52.526;13.390;2023-04-03T08:40:14;7.10;82.90
12254;DHT22;6189;52.526;13.390;2023-04-03T08:43:10;6.90;83.80
12254;DHT22;6189;52.526;13.390;2023-04-03T08:46:05;7.00;83.90
12254;DHT22;6189;52.526;13.390;2023-04-03T08:48:51;7.00;83.30
12254;DHT22;6189;52.526;13.390;2023-04-03T08:51:38;6.90;81.60
12254;DHT22;6189;52.526;13.390;2023-04-03T08:54:29;7.10;82.80
12254;DHT22;6189;52.526;13.390;2023-04-03T08:57:16;7.10;81.60
12254;DHT22;6189;52.526;13.390;2023-04-03T09:00:07;7.20;81.80
12254;DHT22;6189;52.526;13.390;2023-04-03T09:02:59;7.30;82.40
12254;DHT22;6189;52.526;13.390;2023-04-03T09:05:48;7.40;82.30
12254;DHT22;6189;52.526;13.390;2023-04-03T09:08:40;7.40;81.00
12254;DHT22;6189;52.526;13.390;2023-04-03T09:11:38;7.50;80.10
12254;DHT22;6189;52.526;13.390;2023-04-03T09:14:34;7.40;80.10
12254;DHT22;6189;52.526;13.390;2023-04-03T09:17:33;7.30;78.80
12254;DHT22;6189;52.526;13.390;2023-04-03T09:20:26;7.20;76.90
12254;DHT22;6189;52.526;13.390;2023-04-03T09:23:22;7.10;77.80
12254;DHT22;6189;52.526;13.390;2023-04-03T09:26:14;7.20;76.50
12254;DHT22;6189;52.526;13.390;2023-04-03T09:29:05;7.60;78.70
12254;DHT22;6189;52.526;13.390;2023-04-03T09:31:54;8.10;78.50
12254;DHT22;6189;52.526;13.390;2023-04-03T09:34:42;8.40;77.30
12254;DHT22;6189;52.526;13.390;2023-04-03T09:37:39;8.60;76.60
12254;DHT22;6189;52.526;13.390;2023-04-03T09:40:31;8.70;76.10
12254;DHT22;6189;52.526;13.390;2023-04-03T09:43:24;8.60;83.60
12254;DHT22;6189;52.526;13.390;2023-04-03T09:46:29;8.70;84.10
12254;DHT22;6189;52.526;13.390;2023-04-03T09:49:17;8.70;77.90
12254;DHT22;6189;52.526;13.390;2023-04-03T09:52:19;8.60;76.40
12254;DHT22;6189;52.526;13.390;2023-04-03T09:55:13;8.60;77.40
12254;DHT22;6189;52.526;13.390;2023-04-03T09:58:00;8.70;77.80
12254;DHT22;6189;52.526;13.390;2023-04-03T10:00:54;8.90;78.00
12254;DHT22;6189;52.526;13.390;2023-04-03T10:03:40;8.80;77.90
12254;DHT22;6189;52.526;13.390;2023-04-03T10:06:32;8.80;81.00
12254;DHT22;6189;52.526;13.390;2023-04-03T10:09:22;8.70;78.10
12254;DHT22;6189;52.526;13.390;2023-04-03T10:12:10;9.30;76.20
12254;DHT22;6189;52.526;13.390;2023-04-03T10:15:00;9.40;75.90
12254;DHT22;6189;52.526;13.390;2023-04-03T10:17:53;9.40;73.40
12254;DHT22;6189;52.526;13.390;2023-04-03T10:20:44;9.00;73.60
12254;DHT22;6189;52.526;13.390;2023-04-03T10:23:40;8.90;74.60
12254;DHT22;6189;52.526;13.390;2023-04-03T10:26:32;9.00;73.20
12254;DHT22;6189;52.526;13.390;2023-04-03T10:29:40;9.20;73.40
12254;DHT22;6189;52.526;13.390;2023-04-03T10:32:41;9.40;72.90
12254;DHT22;6189;52.526;13.390;2023-04-03T10:35:40;9.60;71.20
12254;DHT22;6189;52.526;13.390;2023-04-03T10:38:34;9.00;70.90
12254;DHT22;6189;52.526;13.390;2023-04-03T10:41:28;9.20;72.20
12254;DHT22;6189;52.526;13.390;2023-04-03T10:44:20;9.10;71.50
12254;DHT22;6189;52.526;13.390;2023-04-03T10:47:12;9.00;72.90
12254;DHT22;6189;52.526;13.390;2023-04-03T10:50:13;9.10;70.70
12254;DHT22;6189;52.526;13.390;2023-04-03T10:53:11;9.20;72.40
12254;DHT22;6189;52.526;13.390;2023-04-03T10:56:04;9.10;70.40
12254;DHT22;6189;52.526;13.390;2023-04-03T10:58:56;9.00;70.10
12254;DHT22;6189;52.526;13.390;2023-04-03T11:01:45;9.10;72.40
12254;DHT22;6189;52.526;13.390;2023-04-03T11:04:36;9.20;71.20
12254;DHT22;6189;52.526;13.390;2023-04-03T11:07:26;9.30;69.80
12254;DHT22;6189;52.526;13.390;2023-04-03T11:10:15;9.20;72.00
12254;DHT22;6189;52.526;13.390;2023-04-03T11:13:10;9.20;71.10
12254;DHT22;6189;52.526;13.390;2023-04-03T11:15:58;9.30;70.10
12254;DHT22;6189;52.526;13.390;2023-04-03T11:18:47;9.30;71.60
12254;DHT22;6189;52.526;13.390;2023-04-03T11:21:39;8.90;69.90
12254;DHT22;6189;52.526;13.390;2023-04-03T11:24:29;9.20;71.90
12254;DHT22;6189;52.526;13.390;2023-04-03T11:27:19;9.30;70.80
12254;DHT22;6189;52.526;13.390;2023-04-03T11:30:09;9.20;72.10
12254;DHT22;6189;52.526;13.390;2023-04-03T11:33:08;9.30;73.00
12254;DHT22;6189;52.526;13.390;2023-04-03T11:36:00;9.50;71.10
12254;DHT22;6189;52.526;13.390;2023-04-03T11:38:49;9.10;69.30
12254;DHT22;6189;52.526;13.390;2023-04-03T11:41:37;9.30;72.00
12254;DHT22;6189;52.526;13.390;2023-04-03T11:44:31;9.10;71.00
12254;DHT22;6189;52.526;13.390;2023-04-03T11:50:42;9.10;71.20
12254;DHT22;6189;52.526;13.390;2023-04-03T11:53:34;9.30;72.40
12254;DHT22;6189;52.526;13.390;2023-04-03T11:56:33;9.30;71.60
12254;DHT22;6189;52.526;13.390;2023-04-03T11:59:23;9.60;70.60
12254;DHT22;6189;52.526;13.390;2023-04-03T12:02:35;9.30;70.20
12254;DHT22;6189;52.526;13.390;2023-04-03T12:05:26;9.40;71.20
12254;DHT22;6189;52.526;13.390;2023-04-03T12:08:43;9.10;70.80
12254;DHT22;6189;52.526;13.390;2023-04-03T12:11:30;9.20;73.00
12254;DHT22;6189;52.526;13.390;2023-04-03T12:14:17;9.40;71.20
12254;DHT22;6189;52.526;13.390;2023-04-03T12:17:20;9.40;71.40
12254;DHT22;6189;52.526;13.390;2023-04-03T12:23:30;9.50;70.80
12254;DHT22;6189;52.526;13.390;2023-04-03T12:26:21;9.20;71.70
12254;DHT22;6189;52.526;13.390;2023-04-03T12:29:17;9.00;73.40
12254;DHT22;6189;52.526;13.390;2023-04-03T12:32:12;9.20;72.70
12254;DHT22;6189;52.526;13.390;2023-04-03T12:35:14;9.30;72.70
12254;DHT22;6189;52.526;13.390;2023-04-03T12:41:30;9.30;72.80
12254;DHT22;6189;52.526;13.390;2023-04-03T12:44:37;9.30;71.80
12254;DHT22;6189;52.526;13.390;2023-04-03T12:47:30;9.40;72.30
12254;DHT22;6189;52.526;13.390;2023-04-03T12:50:20;9.30;70.70
12254;DHT22;6189;52.526;13.390;2023-04-03T12:53:13;9.30;69.70
12254;DHT22;6189;52.526;13.390;2023-04-03T12:56:18;9.40;68.70
12254;DHT22;6189;52.526;13.390;2023-04-03T12:59:15;9.30;68.10
12254;DHT22;6189;52.526;13.390;2023-04-03T13:02:07;9.30;69.30
12254;DHT22;6189;52.526;13.390;2023-04-03T13:04:57;9.30;70.00
12254;DHT22;6189;52.526;13.390;2023-04-03T13:07:44;9.00;69.80
12254;DHT22;6189;52.526;13.390;2023-04-03T13:10:45;9.00;71.60
12254;DHT22;6189;52.526;13.390;2023-04-03T13:13:33;9.10;72.10
12254;DHT22;6189;52.526;13.390;2023-04-03T13:16:18;9.10;71.30
12254;DHT22;6189;52.526;13.390;2023-04-03T13:19:05;9.10;72.80
12254;DHT22;6189;52.526;13.390;2023-04-03T13:21:56;9.00;71.90
12254;DHT22;6189;52.526;13.390;2023-04-03T13:24:46;9.10;71.20
12254;DHT22;6189;52.526;13.390;2023-04-03T13:27:33;9.00;70.60
12254;DHT22;6189;52.526;13.390;2023-04-03T13:30:23;9.10;70.20
12254;DHT22;6189;52.526;13.390;2023-04-03T13:33:21;9.00;70.20
12254;DHT22;6189;52.526;13.390;2023-04-03T13:36:17;9.10;70.70
12254;DHT22;6189;52.526;13.390;2023-04-03T13:39:05;9.10;70.90
12254;DHT22;6189;52.526;13.390;2023-04-03T13:41:53;9.10;71.00
12254;DHT22;6189;52.526;13.390;2023-04-03T13:44:39;9.20;71.20
12254;DHT22;6189;52.526;13.390;2023-04-03T13:47:25;9.00;71.60
12254;DHT22;6189;52.526;13.390;2023-04-03T13:50:16;8.90;70.40
12254;DHT22;6189;52.526;13.390;2023-04-03T13:53:11;8.90;70.80
12254;DHT22;6189;52.526;13.390;2023-04-03T13:56:09;9.00;71.20
12254;DHT22;6189;52.526;13.390;2023-04-03T13:59:03;9.00;70.80
12254;DHT22;6189;52.526;13.390;2023-04-03T14:01:53;9.00;71.10
12254;DHT22;6189;52.526;13.390;2023-04-03T14:04:48;8.70;70.60
12254;DHT22;6189;52.526;13.390;2023-04-03T14:07:33;8.70;72.10
12254;DHT22;6189;52.526;13.390;2023-04-03T14:10:21;8.80;72.50
12254;DHT22;6189;52.526;13.390;2023-04-03T14:13:10;8.90;72.00
12254;DHT22;6189;52.526;13.390;2023-04-03T14:15:56;8.70;70.80
12254;DHT22;6189;52.526;13.390;2023-04-03T14:18:43;8.70;71.80
12254;DHT22;6189;52.526;13.390;2023-04-03T14:21:28;8.60;72.70
12254;DHT22;6189;52.526;13.390;2023-04-03T14:24:14;8.80;73.80
12254;DHT22;6189;52.526;13.390;2023-04-03T14:27:02;8.80;72.90
12254;DHT22;6189;52.526;13.390;2023-04-03T14:29:50;8.50;72.20
12254;DHT22;6189;52.526;13.390;2023-04-03T14:32:36;8.60;73.60
12254;DHT22;6189;52.526;13.390;2023-04-03T14:35:23;8.80;72.90
12254;DHT22;6189;52.526;13.390;2023-04-03T14:38:21;9.10;72.90
12254;DHT22;6189;52.526;13.390;2023-04-03T14:41:11;9.20;73.10
12254;DHT22;6189;52.526;13.390;2023-04-03T14:43:58;9.30;72.70
12254;DHT22;6189;52.526;13.390;2023-04-03T14:46:44;9.00;72.00
12254;DHT22;6189;52.526;13.390;2023-04-03T14:49:31;8.30;72.00
12254;DHT22;6189;52.526;13.390;2023-04-03T14:52:20;8.40;74.00
12254;DHT22;6189;52.526;13.390;2023-04-03T14:55:07;8.70;74.80
12254;DHT22;6189;52.526;13.390;2023-04-03T14:57:53;8.70;73.70
12254;DHT22;6189;52.526;13.390;2023-04-03T15:00:40;8.80;74.50
12254;DHT22;6189;52.526;13.390;2023-04-03T15:03:25;8.90;75.00
12254;DHT22;6189;52.526;13.390;2023-04-03T15:06:12;9.00;74.70
12254;DHT22;6189;52.526;13.390;2023-04-03T15:08:58;9.00;74.90
12254;DHT22;6189;52.526;13.390;2023-04-03T15:11:44;9.10;75.10
12254;DHT22;6189;52.526;13.390;2023-04-03T15:14:29;8.90;76.40
12254;DHT22;6189;52.526;13.390;2023-04-03T15:17:20;9.00;75.20
12254;DHT22;6189;52.526;13.390;2023-04-03T15:20:12;9.00;76.20
12254;DHT22;6189;52.526;13.390;2023-04-03T15:22:59;8.80;75.50
12254;DHT22;6189;52.526;13.390;2023-04-03T15:25:47;8.80;76.10
12254;DHT22;6189;52.526;13.390;2023-04-03T15:28:36;8.60;76.50
12254;DHT22;6189;52.526;13.390;2023-04-03T15:31:22;8.30;77.10
12254;DHT22;6189;52.526;13.390;2023-04-03T15:34:09;8.40;76.80
12254;DHT22;6189;52.526;13.390;2023-04-03T15:36:55;8.60;76.80
12254;DHT22;6189;52.526;13.390;2023-04-03T15:39:40;8.50;77.00
12254;DHT22;6189;52.526;13.390;2023-04-03T15:42:26;8.60;77.10
12254;DHT22;6189;52.526;13.390;2023-04-03T15:45:11;8.50;77.10
12254;DHT22;6189;52.526;13.390;2023-04-03T15:47:57;8.60;77.20
12254;DHT22;6189;52.526;13.390;2023-04-03T15:50:44;8.70;77.30
12254;DHT22;6189;52.526;13.390;2023-04-03T15:53:30;8.70;77.10
12254;DHT22;6189;52.526;13.390;2023-04-03T15:56:16;8.60;76.10
12254;DHT22;6189;52.526;13.390;2023-04-03T15:59:01;8.60;77.10
12254;DHT22;6189;52.526;13.390;2023-04-03T16:01:48;8.60;76.30
12254;DHT22;6189;52.526;13.390;2023-04-03T16:04:34;8.60;77.00
12254;DHT22;6189;52.526;13.390;2023-04-03T16:07:21;8.70;77.00
12254;DHT22;6189;52.526;13.390;2023-04-03T16:10:08;8.50;76.50
12254;DHT22;6189;52.526;13.390;2023-04-03T16:12:54;8.60;77.40
12254;DHT22;6189;52.526;13.390;2023-04-03T16:15:40;8.70;77.00
12254;DHT22;6189;52.526;13.390;2023-04-03T16:18:26;8.70;77.00
12254;DHT22;6189;52.526;13.390;2023-04-03T16:21:12;8.60;76.90
12254;DHT22;6189;52.526;13.390;2023-04-03T16:24:01;8.60;77.40
12254;DHT22;6189;52.526;13.390;2023-04-03T16:26:47;8.60;77.20
12254;DHT22;6189;52.526;13.390;2023-04-03T16:29:33;8.20;78.10
12254;DHT22;6189;52.526;13.390;2023-04-03T16:32:19;8.50;78.50
12254;DHT22;6189;52.526;13.390;2023-04-03T16:35:05;8.60;78.60
12254;DHT22;6189;52.526;13.390;2023-04-03T16:37:51;8.60;77.80
12254;DHT22;6189;52.526;13.390;2023-04-03T16:40:38;8.60;77.20
12254;DHT22;6189;52.526;13.390;2023-04-03T16:43:23;8.60;77.40
12254;DHT22;6189;52.526;13.390;2023-04-03T16:46:09;8.30;79.90
12254;DHT22;6189;52.526;13.390;2023-04-03T16:48:55;8.10;79.00
12254;DHT22;6189;52.526;13.390;2023-04-03T16:51:40;8.20;80.30
12254;DHT22;6189;52.526;13.390;2023-04-03T16:54:26;8.20;78.40
12254;DHT22;6189;52.526;13.390;2023-04-03T16:57:13;8.30;78.80
12254;DHT22;6189;52.526;13.390;2023-04-03T16:59:59;8.60;78.10
12254;DHT22;6189;52.526;13.390;2023-04-03T17:02:45;8.70;77.30
12254;DHT22;6189;52.526;13.390;2023-04-03T17:05:30;8.80;77.00
12254;DHT22;6189;52.526;13.390;2023-04-03T17:08:16;8.90;78.10
12254;DHT22;6189;52.526;13.390;2023-04-03T17:11:02;8.60;77.50
12254;DHT22;6189;52.526;13.390;2023-04-03T17:13:49;8.60;78.10
12254;DHT22;6189;52.526;13.390;2023-04-03T17:16:37;8.70;78.70
12254;DHT22;6189;52.526;13.390;2023-04-03T17:19:22;8.80;78.60
12254;DHT22;6189;52.526;13.390;2023-04-03T17:22:08;8.80;77.90
12254;DHT22;6189;52.526;13.390;2023-04-03T17:24:54;8.70;78.00
12254;DHT22;6189;52.526;13.390;2023-04-03T17:27:40;8.30;78.10
12254;DHT22;6189;52.526;13.390;2023-04-03T17:30:27;8.20;80.10
12254;DHT22;6189;52.526;13.390;2023-04-03T17:33:13;8.30;80.40
12254;DHT22;6189;52.526;13.390;2023-04-03T17:35:59;8.20;80.10
12254;DHT22;6189;52.526;13.390;2023-04-03T17:38:45;8.30;80.50
12254;DHT22;6189;52.526;13.390;2023-04-03T17:41:32;8.40;80.50
12254;DHT22;6189;52.526;13.390;2023-04-03T17:44:17;8.60;79.90
12254;DHT22;6189;52.526;13.390;2023-04-03T17:47:04;8.50;79.90
12254;DHT22;6189;52.526;13.390;2023-04-03T17:49:50;8.50;80.20
12254;DHT22;6189;52.526;13.390;2023-04-03T17:52:35;8.60;80.60
12254;DHT22;6189;52.526;13.390;2023-04-03T17:55:22;8.60;80.50
12254;DHT22;6189;52.526;13.390;2023-04-03T17:58:08;8.70;80.90
12254;DHT22;6189;52.526;13.390;2023-04-03T18:00:54;8.50;80.40
12254;DHT22;6189;52.526;13.390;2023-04-03T18:03:42;8.50;81.30
12254;DHT22;6189;52.526;13.390;2023-04-03T18:06:31;8.50;80.80
12254;DHT22;6189;52.526;13.390;2023-04-03T18:09:20;8.40;81.70